sensor_id;sensor_type;location;lat;lon;timestamp;pressure;altitude;pressure_sealevel;temperature;humidity
72560;BME280;60584;52.364;9.768;2022-08-18T11:15:49;100564.94;;;26.91;49.18
72560;BME280;62987;52.382;9.752;2022-08-18T11:18:30;100556.06;;;26.32;49.71
72560;BME280;62987;52.382;9.752;2022-08-18T11:21:22;100546.88;;;26.41;50.50
72560;BME280;62987;52.382;9.752;2022-08-18T11:24:05;100548.38;;;26.27;50.05
72560;BME280;62987;52.382;9.752;2022-08-18T11:26:38;100539.50;;;26.58;49.19
72560;BME280;62987;52.382;9.752;2022-08-18T11:29:22;100526.72;;;26.66;48.88
72560;BME280;62987;52.382;9.752;2022-08-18T11:31:57;100533.06;;;26.51;49.04
72560;BME280;62987;52.382;9.752;2022-08-18T11:34:35;100525.69;;;26.76;48.93
72560;BME280;62987;52.382;9.752;2022-08-18T11:37:18;100523.47;;;26.71;49.07
72560;BME280;62987;52.382;9.752;2022-08-18T11:39:49;100519.72;;;26.72;49.63
72560;BME280;62987;52.382;9.752;2022-08-18T11:42:19;100518.81;;;27.12;47.49
72560;BME280;62987;52.382;9.752;2022-08-18T11:44:53;100522.31;;;27.29;47.53
72560;BME280;62987;52.382;9.752;2022-08-18T11:47:30;100519.84;;;27.50;46.68
72560;BME280;62987;52.382;9.752;2022-08-18T11:50:07;100523.03;;;27.62;45.86
72560;BME280;62987;52.382;9.752;2022-08-18T11:52:47;100522.97;;;27.78;46.62
72560;BME280;62987;52.382;9.752;2022-08-18T11:55:27;100524.22;;;27.98;45.78
72560;BME280;62987;52.382;9.752;2022-08-18T11:57:57;100526.97;;;28.44;43.70
72560;BME280;62987;52.382;9.752;2022-08-18T12:03:30;100511.72;;;28.64;44.03
72560;BME280;62987;52.382;9.752;2022-08-18T12:06:11;100505.41;;;27.95;43.99
72560;BME280;62987;52.382;9.752;2022-08-18T12:09:04;100506.34;;;28.33;44.04
72560;BME280;62987;52.382;9.752;2022-08-18T12:11:35;100513.84;;;28.54;43.05
72560;BME280;62987;52.382;9.752;2022-08-18T12:14:28;100503.72;;;28.40;43.09
72560;BME280;62987;52.382;9.752;2022-08-18T12:17:01;100496.13;;;28.27;43.98
72560;BME280;62987;52.382;9.752;2022-08-18T12:19:33;100487.91;;;28.50;42.33
72560;BME280;62987;52.382;9.752;2022-08-18T12:22:13;100498.16;;;28.85;42.27
72560;BME280;62987;52.382;9.752;2022-08-18T12:24:44;100498.34;;;28.32;43.78
72560;BME280;62987;52.382;9.752;2022-08-18T12:27:16;100489.47;;;28.30;43.73
72560;BME280;62987;52.382;9.752;2022-08-18T12:29:48;100486.88;;;28.51;43.52
72560;BME280;62987;52.382;9.752;2022-08-18T12:32:17;100491.84;;;29.29;42.25
72560;BME280;62987;52.382;9.752;2022-08-18T12:35:09;100490.78;;;30.16;40.58
72560;BME280;62987;52.382;9.752;2022-08-18T12:37:41;100490.66;;;30.03;39.82
72560;BME280;62987;52.382;9.752;2022-08-18T12:40:32;100487.97;;;30.52;39.18
72560;BME280;62987;52.382;9.752;2022-08-18T12:43:00;100489.50;;;31.17;36.81
72560;BME280;62987;52.382;9.752;2022-08-18T12:45:28;100483.41;;;31.28;37.29
72560;BME280;62987;52.382;9.752;2022-08-18T12:47:58;100484.81;;;30.34;39.53
72560;BME280;62987;52.382;9.752;2022-08-18T12:50:31;100483.50;;;29.52;40.77
72560;BME280;62987;52.382;9.752;2022-08-18T12:53:16;100478.53;;;29.40;41.28
72560;BME280;62987;52.382;9.752;2022-08-18T12:55:56;100468.53;;;28.89;42.15
72560;BME280;62987;52.382;9.752;2022-08-18T12:58:26;100475.22;;;29.16;41.87
72560;BME280;62987;52.382;9.752;2022-08-18T13:00:55;100470.38;;;29.18;42.06
72560;BME280;62987;52.382;9.752;2022-08-18T13:03:24;100465.50;;;29.13;42.10
72560;BME280;62987;52.382;9.752;2022-08-18T13:05:56;100464.72;;;29.05;41.95
72560;BME280;62987;52.382;9.752;2022-08-18T13:08:27;100464.34;;;28.63;41.71
72560;BME280;62987;52.382;9.752;2022-08-18T13:11:04;100457.75;;;29.02;41.79
72560;BME280;62987;52.382;9.752;2022-08-18T13:13:47;100454.66;;;29.92;40.08
72560;BME280;62987;52.382;9.752;2022-08-18T13:16:21;100452.53;;;30.15;39.72
72560;BME280;62987;52.382;9.752;2022-08-18T13:19:09;100451.72;;;30.42;38.66
72560;BME280;62987;52.382;9.752;2022-08-18T13:21:40;100472.16;;;30.12;39.43
72560;BME280;62987;52.382;9.752;2022-08-18T13:24:09;100481.75;;;30.23;39.04
72560;BME280;62987;52.382;9.752;2022-08-18T13:26:42;100470.72;;;29.59;40.14
72560;BME280;62987;52.382;9.752;2022-08-18T13:29:12;100474.66;;;29.35;40.73
72560;BME280;62987;52.382;9.752;2022-08-18T13:31:43;100476.16;;;29.23;41.20
72560;BME280;62987;52.382;9.752;2022-08-18T13:34:24;100469.19;;;29.35;40.57
72560;BME280;62987;52.382;9.752;2022-08-18T13:36:57;100463.72;;;29.35;40.08
72560;BME280;62987;52.382;9.752;2022-08-18T13:39:26;100460.09;;;29.70;39.67
72560;BME280;62987;52.382;9.752;2022-08-18T13:42:00;100457.03;;;30.44;39.05
72560;BME280;62987;52.382;9.752;2022-08-18T13:44:49;100452.28;;;31.21;37.63
72560;BME280;62987;52.382;9.752;2022-08-18T13:47:19;100445.50;;;31.17;37.29
72560;BME280;62987;52.382;9.752;2022-08-18T13:49:49;100459.75;;;30.65;39.15
72560;BME280;62987;52.382;9.752;2022-08-18T13:52:27;100463.50;;;30.57;38.11
72560;BME280;62987;52.382;9.752;2022-08-18T13:55:07;100473.47;;;30.16;39.35
72560;BME280;62987;52.382;9.752;2022-08-18T13:57:40;100467.53;;;28.67;42.18
72560;BME280;62987;52.382;9.752;2022-08-18T14:00:18;100468.41;;;29.12;42.03
72560;BME280;62987;52.382;9.752;2022-08-18T14:02:57;100475.81;;;28.96;42.06
72560;BME280;62987;52.382;9.752;2022-08-18T14:05:29;100466.81;;;28.88;42.46
72560;BME280;62987;52.382;9.752;2022-08-18T14:08:19;100471.84;;;28.84;42.79
72560;BME280;62987;52.382;9.752;2022-08-18T14:10:52;100470.81;;;28.48;43.77
72560;BME280;62987;52.382;9.752;2022-08-18T14:13:21;100465.22;;;28.41;44.32
72560;BME280;62987;52.382;9.752;2022-08-18T14:15:51;100471.72;;;28.26;45.14
72560;BME280;62987;52.382;9.752;2022-08-18T14:18:21;100472.66;;;27.64;45.08
72560;BME280;62987;52.382;9.752;2022-08-18T14:20:57;100476.53;;;27.70;45.83
72560;BME280;62987;52.382;9.752;2022-08-18T14:23:50;100466.31;;;27.64;45.09
72560;BME280;62987;52.382;9.752;2022-08-18T14:26:40;100449.03;;;27.40;44.77
72560;BME280;62987;52.382;9.752;2022-08-18T14:29:17;100453.38;;;27.27;45.44
72560;BME280;62987;52.382;9.752;2022-08-18T14:32:05;100457.44;;;27.31;46.70
72560;BME280;62987;52.382;9.752;2022-08-18T14:34:34;100436.00;;;27.42;46.13
72560;BME280;62987;52.382;9.752;2022-08-18T14:37:02;100449.16;;;27.47;46.24
72560;BME280;62987;52.382;9.752;2022-08-18T14:39:37;100444.84;;;27.61;45.80
72560;BME280;62987;52.382;9.752;2022-08-18T14:42:06;100449.06;;;27.32;46.59
72560;BME280;62987;52.382;9.752;2022-08-18T14:44:38;100459.94;;;27.40;47.10
72560;BME280;62987;52.382;9.752;2022-08-18T14:47:11;100450.50;;;27.20;46.84
72560;BME280;62987;52.382;9.752;2022-08-18T14:49:49;100448.00;;;27.02;47.53
72560;BME280;62987;52.382;9.752;2022-08-18T14:52:21;100440.47;;;27.04;47.27
72560;BME280;62987;52.382;9.752;2022-08-18T14:54:51;100437.28;;;26.93;46.54
72560;BME280;62987;52.382;9.752;2022-08-18T14:57:20;100439.66;;;26.88;47.37
72560;BME280;62987;52.382;9.752;2022-08-18T14:59:51;100429.78;;;26.87;46.72
72560;BME280;62987;52.382;9.752;2022-08-18T15:02:23;100431.50;;;26.80;46.87
72560;BME280;62987;52.382;9.752;2022-08-18T15:04:51;100435.09;;;26.72;47.02
72560;BME280;62987;52.382;9.752;2022-08-18T15:07:24;100438.19;;;26.69;46.59
72560;BME280;62987;52.382;9.752;2022-08-18T15:09:54;100433.81;;;26.44;47.57
72560;BME280;62987;52.382;9.752;2022-08-18T15:12:43;100439.44;;;26.50;47.89
72560;BME280;62987;52.382;9.752;2022-08-18T15:15:12;100429.38;;;26.43;48.36
72560;BME280;62987;52.382;9.752;2022-08-18T15:17:44;100434.84;;;26.26;50.31
72560;BME280;62987;52.382;9.752;2022-08-18T15:20:18;100430.06;;;25.96;50.59
72560;BME280;62987;52.382;9.752;2022-08-18T15:22:58;100427.84;;;25.75;50.54
72560;BME280;62987;52.382;9.752;2022-08-18T15:25:51;100424.41;;;25.57;51.61
72560;BME280;62987;52.382;9.752;2022-08-18T15:28:22;100417.03;;;25.41;54.71
72560;BME280;62987;52.382;9.752;2022-08-18T15:30:53;100418.91;;;25.33;53.33
72560;BME280;62987;52.382;9.752;2022-08-18T15:33:41;100409.63;;;25.09;53.47
72560;BME280;62987;52.382;9.752;2022-08-18T15:36:16;100411.63;;;24.99;53.49
72560;BME280;62987;52.382;9.752;2022-08-18T15:38:54;100409.63;;;25.01;53.00
72560;BME280;62987;52.382;9.752;2022-08-18T15:41:30;100415.38;;;24.98;53.13
72560;BME280;62987;52.382;9.752;2022-08-18T15:44:01;100414.88;;;25.03;53.05
72560;BME280;62987;52.382;9.752;2022-08-18T15:46:31;100422.19;;;25.02;52.69
72560;BME280;62987;52.382;9.752;2022-08-18T15:49:00;100419.09;;;24.97;53.43
72560;BME280;62987;52.382;9.752;2022-08-18T15:51:34;100416.94;;;25.01;55.54
72560;BME280;62987;52.382;9.752;2022-08-18T15:54:08;100419.81;;;24.99;55.15
72560;BME280;62987;52.382;9.752;2022-08-18T15:56:40;100421.84;;;24.97;55.69
72560;BME280;62987;52.382;9.752;2022-08-18T15:59:09;100414.78;;;24.87;55.20
72560;BME280;62987;52.382;9.752;2022-08-18T16:01:38;100406.47;;;24.88;54.70
72560;BME280;62987;52.382;9.752;2022-08-18T16:04:10;100402.75;;;24.89;53.69
72560;BME280;62987;52.382;9.752;2022-08-18T16:06:41;100404.13;;;24.93;53.38
72560;BME280;62987;52.382;9.752;2022-08-18T16:10:37;100397.38;;;25.05;53.25
72560;BME280;62987;52.382;9.752;2022-08-18T16:13:07;100391.78;;;25.15;53.32
72560;BME280;62987;52.382;9.752;2022-08-18T16:15:37;100391.13;;;25.21;53.12
72560;BME280;62987;52.382;9.752;2022-08-18T16:18:06;100393.19;;;25.27;52.18
72560;BME280;62987;52.382;9.752;2022-08-18T16:20:36;100389.63;;;25.27;52.21
72560;BME280;62987;52.382;9.752;2022-08-18T16:23:05;100378.34;;;25.14;52.63
72560;BME280;62987;52.382;9.752;2022-08-18T16:25:36;100399.31;;;25.29;51.98
72560;BME280;62987;52.382;9.752;2022-08-18T16:28:04;100401.16;;;25.29;52.80
72560;BME280;62987;52.382;9.752;2022-08-18T16:30:33;100387.03;;;25.25;52.41
72560;BME280;62987;52.382;9.752;2022-08-18T16:33:03;100387.91;;;25.26;52.55
72560;BME280;62987;52.382;9.752;2022-08-18T16:35:32;100390.47;;;25.27;53.70
72560;BME280;62987;52.382;9.752;2022-08-18T16:38:02;100383.44;;;25.17;55.09
72560;BME280;62987;52.382;9.752;2022-08-18T16:40:31;100391.25;;;25.12;58.65
72560;BME280;62987;52.382;9.752;2022-08-18T16:43:00;100390.03;;;24.98;59.06
72560;BME280;62987;52.382;9.752;2022-08-18T16:45:29;100385.63;;;24.63;57.65
72560;BME280;62987;52.382;9.752;2022-08-18T16:47:59;100396.09;;;24.24;63.09
72560;BME280;62987;52.382;9.752;2022-08-18T16:50:28;100373.47;;;23.80;63.19
72560;BME280;62987;52.382;9.752;2022-08-18T16:52:56;100401.97;;;23.76;65.28
72560;BME280;62987;52.382;9.752;2022-08-18T16:55:24;100402.88;;;23.67;71.03
72560;BME280;62987;52.382;9.752;2022-08-18T16:57:52;100400.13;;;23.59;67.30
72560;BME280;62987;52.382;9.752;2022-08-18T17:00:43;100403.34;;;23.44;71.68
72560;BME280;62987;52.382;9.752;2022-08-18T17:03:28;100408.81;;;23.35;68.57
72560;BME280;62987;52.382;9.752;2022-08-18T17:06:16;100398.47;;;23.21;68.77
72560;BME280;62987;52.382;9.752;2022-08-18T17:08:45;100404.00;;;23.11;67.20
72560;BME280;62987;52.382;9.752;2022-08-18T17:11:16;100410.75;;;23.07;72.11
72560;BME280;62987;52.382;9.752;2022-08-18T17:13:45;100399.78;;;22.99;72.33
72560;BME280;62987;52.382;9.752;2022-08-18T17:16:17;100401.78;;;22.97;70.26
72560;BME280;62987;52.382;9.752;2022-08-18T17:18:45;100358.66;;;22.66;70.77
72560;BME280;62987;52.382;9.752;2022-08-18T17:21:15;100398.81;;;22.90;67.80
72560;BME280;62987;52.382;9.752;2022-08-18T17:23:45;100402.25;;;22.92;71.13
72560;BME280;62987;52.382;9.752;2022-08-18T17:26:29;100401.53;;;22.90;69.30
72560;BME280;62987;52.382;9.752;2022-08-18T17:29:03;100407.97;;;22.89;68.32
72560;BME280;62987;52.382;9.752;2022-08-18T17:31:35;100410.84;;;22.88;69.64
72560;BME280;62987;52.382;9.752;2022-08-18T17:34:07;100408.56;;;22.83;69.78
72560;BME280;62987;52.382;9.752;2022-08-18T17:36:42;100412.31;;;22.73;74.85
72560;BME280;62987;52.382;9.752;2022-08-18T17:39:22;100406.09;;;22.53;74.21
72560;BME280;62987;52.382;9.752;2022-08-18T17:41:51;100421.28;;;22.36;73.16
72560;BME280;62987;52.382;9.752;2022-08-18T17:44:40;100414.47;;;22.13;82.72
72560;BME280;62987;52.382;9.752;2022-08-18T17:47:24;100417.22;;;21.84;77.60
72560;BME280;62987;52.382;9.752;2022-08-18T17:49:56;100427.03;;;21.56;80.47
72560;BME280;62987;52.382;9.752;2022-08-18T17:52:58;100433.81;;;21.22;84.92
72560;BME280;62987;52.382;9.752;2022-08-18T17:55:35;100437.16;;;21.04;81.56
72560;BME280;62987;52.382;9.752;2022-08-18T17:58:09;100430.59;;;20.97;85.27
72560;BME280;62987;52.382;9.752;2022-08-18T18:00:39;100436.13;;;20.96;89.07
72560;BME280;62987;52.382;9.752;2022-08-18T18:03:08;100433.84;;;21.01;86.67
72560;BME280;62987;52.382;9.752;2022-08-18T18:05:42;100430.59;;;20.97;87.97
72560;BME280;62987;52.382;9.752;2022-08-18T18:08:11;100436.00;;;20.97;88.09
72560;BME280;62987;52.382;9.752;2022-08-18T18:10:42;100436.41;;;20.93;84.53
72560;BME280;62987;52.382;9.752;2022-08-18T18:13:32;100432.56;;;20.95;87.40
72560;BME280;62987;52.382;9.752;2022-08-18T18:16:17;100427.59;;;21.00;88.02
72560;BME280;62987;52.382;9.752;2022-08-18T18:18:54;100433.00;;;21.00;84.64
72560;BME280;62987;52.382;9.752;2022-08-18T18:21:28;100431.75;;;21.04;85.06
72560;BME280;62987;52.382;9.752;2022-08-18T18:24:17;100435.19;;;21.06;84.38
72560;BME280;62987;52.382;9.752;2022-08-18T18:26:50;100435.19;;;21.06;84.50
72560;BME280;62987;52.382;9.752;2022-08-18T18:29:20;100407.53;;;20.93;83.20
72560;BME280;62987;52.382;9.752;2022-08-18T18:32:00;100434.59;;;21.03;83.48
72560;BME280;62987;52.382;9.752;2022-08-18T18:34:33;100441.59;;;21.05;80.98
72560;BME280;62987;52.382;9.752;2022-08-18T18:37:22;100442.03;;;21.10;82.56
72560;BME280;62987;52.382;9.752;2022-08-18T18:39:55;100415.78;;;21.01;83.13
72560;BME280;62987;52.382;9.752;2022-08-18T18:42:27;100449.69;;;21.05;82.16
72560;BME280;62987;52.382;9.752;2022-08-18T18:44:58;100456.09;;;21.04;83.49
72560;BME280;62987;52.382;9.752;2022-08-18T18:47:43;100449.22;;;21.00;82.19
72560;BME280;62987;52.382;9.752;2022-08-18T18:50:19;100451.84;;;21.11;79.77
72560;BME280;62987;52.382;9.752;2022-08-18T18:52:57;100453.97;;;21.08;81.67
72560;BME280;62987;52.382;9.752;2022-08-18T18:55:31;100448.41;;;21.09;79.73
72560;BME280;62987;52.382;9.752;2022-08-18T18:58:11;100449.69;;;21.05;80.57
72560;BME280;62987;52.382;9.752;2022-08-18T19:00:47;100453.25;;;21.06;82.30
72560;BME280;62987;52.382;9.752;2022-08-18T19:03:27;100457.53;;;21.08;82.45
72560;BME280;62987;52.382;9.752;2022-08-18T19:06:07;100460.53;;;21.05;82.57
72560;BME280;62987;52.382;9.752;2022-08-18T19:08:47;100464.22;;;21.04;82.27
72560;BME280;62987;52.382;9.752;2022-08-18T19:11:26;100465.75;;;20.97;81.87
72560;BME280;62987;52.382;9.752;2022-08-18T19:14:00;100480.06;;;20.88;83.53
72560;BME280;62987;52.382;9.752;2022-08-18T19:16:38;100474.22;;;20.83;83.91
72560;BME280;62987;52.382;9.752;2022-08-18T19:19:11;100466.22;;;20.72;84.85
72560;BME280;62987;52.382;9.752;2022-08-18T19:22:08;100469.72;;;20.63;85.44
72560;BME280;62987;52.382;9.752;2022-08-18T19:24:47;100466.31;;;20.61;85.30
72560;BME280;62987;52.382;9.752;2022-08-18T19:27:24;100457.72;;;20.56;85.76
72560;BME280;62987;52.382;9.752;2022-08-18T19:29:57;100446.03;;;20.46;85.16
72560;BME280;62987;52.382;9.752;2022-08-18T19:32:34;100452.16;;;20.48;85.00
72560;BME280;62987;52.382;9.752;2022-08-18T19:35:06;100450.00;;;20.42;87.41
72560;BME280;62987;52.382;9.752;2022-08-18T19:37:55;100446.81;;;20.37;86.91
72560;BME280;62987;52.382;9.752;2022-08-18T19:40:35;100451.50;;;20.34;86.87
72560;BME280;62987;52.382;9.752;2022-08-18T19:43:11;100448.41;;;20.39;85.49
72560;BME280;62987;52.382;9.752;2022-08-18T19:45:47;100454.91;;;20.37;86.40
72560;BME280;62987;52.382;9.752;2022-08-18T19:48:23;100464.84;;;20.36;86.89
72560;BME280;62987;52.382;9.752;2022-08-18T19:50:57;100464.72;;;20.38;86.99
72560;BME280;62987;52.382;9.752;2022-08-18T19:53:45;100468.91;;;20.30;87.51
72560;BME280;62987;52.382;9.752;2022-08-18T19:56:39;100470.75;;;20.30;86.18
72560;BME280;62987;52.382;9.752;2022-08-18T19:59:20;100473.88;;;20.25;85.27
72560;BME280;62987;52.382;9.752;2022-08-18T20:02:11;100452.88;;;20.08;85.33
72560;BME280;62987;52.382;9.752;2022-08-18T20:05:00;100467.72;;;20.23;85.12
72560;BME280;62987;52.382;9.752;2022-08-18T20:11:16;100463.25;;;20.13;84.46
72560;BME280;62987;52.382;9.752;2022-08-18T20:14:09;100479.00;;;20.08;85.06
72560;BME280;62987;52.382;9.752;2022-08-18T20:16:39;100484.78;;;20.03;85.12
72560;BME280;62987;52.382;9.752;2022-08-18T20:22:30;100493.16;;;20.00;84.21
72560;BME280;62987;52.382;9.752;2022-08-18T20:25:00;100491.72;;;19.96;85.70
72560;BME280;62987;52.382;9.752;2022-08-18T20:27:37;100498.81;;;19.97;83.57
72560;BME280;62987;52.382;9.752;2022-08-18T20:30:30;100496.84;;;19.99;84.88
72560;BME280;62987;52.382;9.752;2022-08-18T20:33:08;100502.75;;;19.93;84.97
72560;BME280;62987;52.382;9.752;2022-08-18T20:35:38;100504.59;;;19.92;84.84
72560;BME280;62987;52.382;9.752;2022-08-18T20:38:28;100500.69;;;19.85;84.45
72560;BME280;62987;52.382;9.752;2022-08-18T20:41:28;100500.81;;;19.84;84.67
72560;BME280;62987;52.382;9.752;2022-08-18T20:44:00;100505.38;;;19.83;84.81
72560;BME280;62987;52.382;9.752;2022-08-18T20:46:37;100499.38;;;19.80;85.29
72560;BME280;62987;52.382;9.752;2022-08-18T20:49:17;100489.31;;;19.82;84.62
72560;BME280;62987;52.382;9.752;2022-08-18T20:51:56;100493.13;;;19.79;84.27
72560;BME280;62987;52.382;9.752;2022-08-18T20:54:38;100498.41;;;19.81;84.56
72560;BME280;62987;52.382;9.752;2022-08-18T20:57:26;100507.34;;;19.81;83.54
72560;BME280;62987;52.382;9.752;2022-08-18T21:00:06;100509.44;;;19.78;83.57
72560;BME280;62987;52.382;9.752;2022-08-18T21:02:46;100513.97;;;19.77;83.66
72560;BME280;62987;52.382;9.752;2022-08-18T21:05:21;100521.38;;;19.75;83.51
72560;BME280;62987;52.382;9.752;2022-08-18T21:08:00;100519.53;;;19.76;82.18
72560;BME280;62987;52.382;9.752;2022-08-18T21:10:32;100525.91;;;19.75;82.46
72560;BME280;62987;52.382;9.752;2022-08-18T21:13:03;100528.13;;;19.70;82.00
72560;BME280;62987;52.382;9.752;2022-08-18T21:15:37;100517.84;;;19.64;83.04
72560;BME280;62987;52.382;9.752;2022-08-18T21:18:16;100518.69;;;19.64;81.95
72560;BME280;62987;52.382;9.752;2022-08-18T21:20:45;100529.00;;;19.70;81.18
72560;BME280;62987;52.382;9.752;2022-08-18T21:23:21;100496.78;;;19.46;81.95
72560;BME280;62987;52.382;9.752;2022-08-18T21:25:52;100530.09;;;19.68;81.62
72560;BME280;62987;52.382;9.752;2022-08-18T21:28:24;100527.91;;;19.62;82.02
72560;BME280;62987;52.382;9.752;2022-08-18T21:30:56;100526.91;;;19.63;81.66
72560;BME280;62987;52.382;9.752;2022-08-18T21:33:47;100531.19;;;19.65;80.98
72560;BME280;62987;52.382;9.752;2022-08-18T21:36:16;100534.03;;;19.64;81.68
72560;BME280;62987;52.382;9.752;2022-08-18T21:38:47;100534.03;;;19.64;81.48
72560;BME280;62987;52.382;9.752;2022-08-18T21:41:34;100538.44;;;19.65;82.03
72560;BME280;62987;52.382;9.752;2022-08-18T21:44:07;100535.13;;;19.61;81.53
72560;BME280;62987;52.382;9.752;2022-08-18T21:46:42;100533.28;;;19.62;81.79
72560;BME280;62987;52.382;9.752;2022-08-18T21:49:11;100540.66;;;19.60;81.21
72560;BME280;62987;52.382;9.752;2022-08-18T21:51:50;100540.78;;;19.58;81.65
72560;BME280;62987;52.382;9.752;2022-08-18T21:54:20;100543.34;;;19.60;81.29
72560;BME280;62987;52.382;9.752;2022-08-18T21:57:19;100538.06;;;19.58;81.38
72560;BME280;62987;52.382;9.752;2022-08-18T22:00:10;100524.47;;;19.60;81.10
72560;BME280;62987;52.382;9.752;2022-08-18T22:02:41;100526.91;;;19.63;80.82
72560;BME280;62987;52.382;9.752;2022-08-18T22:05:10;100532.56;;;19.60;80.75
72560;BME280;62987;52.382;9.752;2022-08-18T22:07:45;100530.59;;;19.62;80.65
72560;BME280;62987;52.382;9.752;2022-08-18T22:10:22;100525.44;;;19.59;81.07
72560;BME280;62987;52.382;9.752;2022-08-18T22:13:17;100527.28;;;19.58;81.18
72560;BME280;62987;52.382;9.752;2022-08-18T22:16:24;100535.25;;;19.60;80.59
72560;BME280;62987;52.382;9.752;2022-08-18T22:19:07;100539.19;;;19.55;80.81
72560;BME280;62987;52.382;9.752;2022-08-18T22:21:37;100535.88;;;19.52;81.67
72560;BME280;62987;52.382;9.752;2022-08-18T22:24:12;100535.88;;;19.52;81.27
72560;BME280;62987;52.382;9.752;2022-08-18T22:26:49;100537.88;;;19.50;81.54
72560;BME280;62987;52.382;9.752;2022-08-18T22:29:32;100536.50;;;19.44;81.75
72560;BME280;62987;52.382;9.752;2022-08-18T22:32:12;100529.38;;;19.43;81.44
72560;BME280;62987;52.382;9.752;2022-08-18T22:34:41;100526.69;;;19.43;81.91
72560;BME280;62987;52.382;9.752;2022-08-18T22:37:11;100527.53;;;19.44;81.17
72560;BME280;62987;52.382;9.752;2022-08-18T22:39:43;100515.91;;;19.43;81.55
72560;BME280;62987;52.382;9.752;2022-08-18T22:42:14;100519.22;;;19.36;81.58
72560;BME280;62987;52.382;9.752;2022-08-18T22:44:43;100516.03;;;19.31;81.67
72560;BME280;62987;52.382;9.752;2022-08-18T22:47:11;100521.56;;;19.29;82.08
72560;BME280;62987;52.382;9.752;2022-08-18T22:49:41;100520.06;;;19.25;82.47
72560;BME280;62987;52.382;9.752;2022-08-18T22:52:22;100513.97;;;19.23;81.92
72560;BME280;62987;52.382;9.752;2022-08-18T22:54:56;100521.31;;;19.21;82.63
72560;BME280;62987;52.382;9.752;2022-08-18T22:57:26;100525.25;;;19.17;82.14
72560;BME280;62987;52.382;9.752;2022-08-18T22:59:55;100526.44;;;19.13;82.73
72560;BME280;62987;52.382;9.752;2022-08-18T23:02:25;100532.84;;;19.12;82.61
72560;BME280;62987;52.382;9.752;2022-08-18T23:04:54;100539.22;;;19.11;82.49
72560;BME280;62987;52.382;9.752;2022-08-18T23:07:22;100550.25;;;19.08;83.27
72560;BME280;62987;52.382;9.752;2022-08-18T23:09:50;100547.53;;;19.08;83.02
72560;BME280;62987;52.382;9.752;2022-08-18T23:12:18;100549.16;;;19.10;82.54
72560;BME280;62987;52.382;9.752;2022-08-18T23:14:46;100550.25;;;19.08;82.65
72560;BME280;62987;52.382;9.752;2022-08-18T23:17:15;100556.59;;;19.07;82.70
72560;BME280;62987;52.382;9.752;2022-08-18T23:19:43;100555.75;;;19.06;82.78
72560;BME280;62987;52.382;9.752;2022-08-18T23:22:14;100542.63;;;19.13;82.28
72560;BME280;62987;52.382;9.752;2022-08-18T23:24:42;100530.97;;;19.12;82.37
72560;BME280;62987;52.382;9.752;2022-08-18T23:27:10;100527.81;;;19.07;82.68
72560;BME280;62987;52.382;9.752;2022-08-18T23:29:41;100530.88;;;19.03;82.93
72560;BME280;62987;52.382;9.752;2022-08-18T23:32:09;100542.03;;;18.98;82.38
72560;BME280;62987;52.382;9.752;2022-08-18T23:34:38;100544.97;;;18.95;82.35
72560;BME280;62987;52.382;9.752;2022-08-18T23:37:06;100549.50;;;18.95;82.79
72560;BME280;62987;52.382;9.752;2022-08-18T23:39:37;100553.44;;;18.91;82.43
72560;BME280;62987;52.382;9.752;2022-08-18T23:42:07;100550.72;;;18.91;82.05
72560;BME280;62987;52.382;9.752;2022-08-18T23:44:39;100551.69;;;18.90;81.92
72560;BME280;62987;52.382;9.752;2022-08-18T23:47:08;100552.69;;;18.89;82.36
72560;BME280;62987;52.382;9.752;2022-08-18T23:49:36;100548.53;;;18.85;81.95
72560;BME280;62987;52.382;9.752;2022-08-18T23:52:04;100562.47;;;18.79;82.57
72560;BME280;62987;52.382;9.752;2022-08-18T23:54:33;100560.75;;;18.77;82.96
72560;BME280;62987;52.382;9.752;2022-08-18T23:57:03;100560.97;;;18.74;82.20
72560;BME280;62987;52.382;9.752;2022-08-18T23:59:32;100570.91;;;18.74;82.27
